Brazos Point, Texas
Current Conditions -  °F | °C
As of 12:35 PM on Sunday 21 Dec 2014 (Local Time) from KCPT Reporting Station
Overcast Overcast  
Wind Chill: 50°   Ceiling: 1100
Heat Index: 50°   Visibility: 9mi
Dew Point: 48°   Wind: 14mph
Humidity: 94%   Direction: 170°S
Pressure: 29.98"   Gusts: NA
Location:  32.1115°N, 97.5857°W
Report Text: KCPT 211835Z AUTO 17012KT 9SM OVC011 10/09 A2998 RMK AO2
Loading
Personal Weather Stations






























Interactive Weather Map New forecast layout! Learn more

10-Day Weather Forecast

Advertisements
Track Severe Weather on mobile